sensor_id;sensor_type;location;lat;lon;timestamp;P1;durP1;ratioP1;P2;durP2;ratioP2
15831;SDS011;8016;49.928;9.372;2024-03-02T00:02:15;13.90;;;8.93;;
15831;SDS011;8016;49.928;9.372;2024-03-02T00:04:44;23.00;;;14.27;;
15831;SDS011;8016;49.928;9.372;2024-03-02T00:07:09;20.43;;;14.07;;
15831;SDS011;8016;49.928;9.372;2024-03-02T00:09:36;13.40;;;9.53;;
15831;SDS011;8016;49.928;9.372;2024-03-02T00:12:02;14.23;;;10.03;;
15831;SDS011;8016;49.928;9.372;2024-03-02T00:14:29;15.00;;;10.70;;
15831;SDS011;8016;49.928;9.372;2024-03-02T00:16:55;12.80;;;9.90;;
15831;SDS011;8016;49.928;9.372;2024-03-02T00:19:21;13.33;;;10.17;;
15831;SDS011;8016;49.928;9.372;2024-03-02T00:21:48;13.70;;;9.40;;
15831;SDS011;8016;49.928;9.372;2024-03-02T00:24:21;13.90;;;11.07;;
15831;SDS011;8016;49.928;9.372;2024-03-02T00:26:47;18.00;;;11.57;;
15831;SDS011;8016;49.928;9.372;2024-03-02T00:29:15;17.77;;;12.23;;
15831;SDS011;8016;49.928;9.372;2024-03-02T00:31:41;17.43;;;11.37;;
15831;SDS011;8016;49.928;9.372;2024-03-02T00:34:07;18.30;;;12.87;;
15831;SDS011;8016;49.928;9.372;2024-03-02T00:36:35;19.47;;;14.50;;
15831;SDS011;8016;49.928;9.372;2024-03-02T00:39:01;19.87;;;12.43;;
15831;SDS011;8016;49.928;9.372;2024-03-02T00:41:31;20.33;;;15.37;;
15831;SDS011;8016;49.928;9.372;2024-03-02T00:46:30;16.07;;;12.90;;
15831;SDS011;8016;49.928;9.372;2024-03-02T00:48:58;20.87;;;14.33;;
15831;SDS011;8016;49.928;9.372;2024-03-02T00:51:25;19.20;;;13.80;;
15831;SDS011;8016;49.928;9.372;2024-03-02T00:53:52;18.07;;;14.67;;
15831;SDS011;8016;49.928;9.372;2024-03-02T00:56:21;20.00;;;14.67;;
15831;SDS011;8016;49.928;9.372;2024-03-02T00:58:47;21.13;;;16.33;;
15831;SDS011;8016;49.928;9.372;2024-03-02T01:01:13;23.07;;;15.20;;
15831;SDS011;8016;49.928;9.372;2024-03-02T01:03:41;20.60;;;13.93;;
15831;SDS011;8016;49.928;9.372;2024-03-02T01:06:07;20.47;;;14.10;;
15831;SDS011;8016;49.928;9.372;2024-03-02T01:08:34;20.80;;;13.97;;
15831;SDS011;8016;49.928;9.372;2024-03-02T01:11:00;20.20;;;15.20;;
15831;SDS011;8016;49.928;9.372;2024-03-02T01:13:26;21.73;;;14.47;;
15831;SDS011;8016;49.928;9.372;2024-03-02T01:15:52;18.83;;;14.20;;
15831;SDS011;8016;49.928;9.372;2024-03-02T01:18:18;16.97;;;13.17;;
15831;SDS011;8016;49.928;9.372;2024-03-02T01:20:44;22.53;;;14.83;;
15831;SDS011;8016;49.928;9.372;2024-03-02T01:23:10;19.30;;;14.17;;
15831;SDS011;8016;49.928;9.372;2024-03-02T01:25:37;22.73;;;16.93;;
15831;SDS011;8016;49.928;9.372;2024-03-02T01:28:03;22.37;;;17.43;;
15831;SDS011;8016;49.928;9.372;2024-03-02T01:30:29;22.93;;;17.50;;
15831;SDS011;8016;49.928;9.372;2024-03-02T01:32:55;25.00;;;16.93;;
15831;SDS011;8016;49.928;9.372;2024-03-02T01:35:21;22.57;;;15.67;;
15831;SDS011;8016;49.928;9.372;2024-03-02T01:37:47;19.00;;;15.57;;
15831;SDS011;8016;49.928;9.372;2024-03-02T01:40:13;24.47;;;16.97;;
15831;SDS011;8016;49.928;9.372;2024-03-02T01:42:39;23.23;;;17.00;;
15831;SDS011;8016;49.928;9.372;2024-03-02T01:45:05;22.13;;;16.73;;
15831;SDS011;8016;49.928;9.372;2024-03-02T01:47:32;23.07;;;16.93;;
15831;SDS011;8016;49.928;9.372;2024-03-02T01:49:58;23.53;;;17.07;;
15831;SDS011;8016;49.928;9.372;2024-03-02T01:52:24;27.87;;;19.63;;
15831;SDS011;8016;49.928;9.372;2024-03-02T01:54:50;21.50;;;18.00;;
15831;SDS011;8016;49.928;9.372;2024-03-02T01:57:17;21.60;;;16.60;;
15831;SDS011;8016;49.928;9.372;2024-03-02T01:59:43;25.83;;;17.97;;
15831;SDS011;8016;49.928;9.372;2024-03-02T02:02:09;25.97;;;18.93;;
15831;SDS011;8016;49.928;9.372;2024-03-02T02:04:35;27.13;;;19.70;;
15831;SDS011;8016;49.928;9.372;2024-03-02T02:07:01;24.73;;;17.90;;
15831;SDS011;8016;49.928;9.372;2024-03-02T02:09:27;22.60;;;17.10;;
15831;SDS011;8016;49.928;9.372;2024-03-02T02:11:53;24.57;;;17.30;;
15831;SDS011;8016;49.928;9.372;2024-03-02T02:14:19;33.20;;;18.00;;
15831;SDS011;8016;49.928;9.372;2024-03-02T02:16:45;22.97;;;16.40;;
15831;SDS011;8016;49.928;9.372;2024-03-02T02:19:11;39.97;;;19.60;;
15831;SDS011;8016;49.928;9.372;2024-03-02T02:21:38;33.00;;;20.00;;
15831;SDS011;8016;49.928;9.372;2024-03-02T02:24:04;45.23;;;21.63;;
15831;SDS011;8016;49.928;9.372;2024-03-02T02:26:30;32.73;;;19.17;;
15831;SDS011;8016;49.928;9.372;2024-03-02T02:28:56;39.77;;;20.77;;
15831;SDS011;8016;49.928;9.372;2024-03-02T02:31:22;42.37;;;22.10;;
15831;SDS011;8016;49.928;9.372;2024-03-02T02:33:48;46.83;;;21.70;;
15831;SDS011;8016;49.928;9.372;2024-03-02T02:36:14;38.30;;;20.73;;
15831;SDS011;8016;49.928;9.372;2024-03-02T02:38:41;56.13;;;23.40;;
15831;SDS011;8016;49.928;9.372;2024-03-02T02:41:08;53.77;;;23.23;;
15831;SDS011;8016;49.928;9.372;2024-03-02T02:43:34;52.93;;;23.53;;
15831;SDS011;8016;49.928;9.372;2024-03-02T02:46:00;60.57;;;24.47;;
15831;SDS011;8016;49.928;9.372;2024-03-02T02:48:26;48.37;;;23.07;;
15831;SDS011;8016;49.928;9.372;2024-03-02T02:50:52;56.43;;;24.10;;
15831;SDS011;8016;49.928;9.372;2024-03-02T02:53:18;52.10;;;24.97;;
15831;SDS011;8016;49.928;9.372;2024-03-02T02:55:44;59.60;;;25.57;;
15831;SDS011;8016;49.928;9.372;2024-03-02T02:58:10;62.60;;;25.70;;
15831;SDS011;8016;49.928;9.372;2024-03-02T03:00:36;69.77;;;27.13;;
15831;SDS011;8016;49.928;9.372;2024-03-02T03:03:02;76.00;;;27.53;;
15831;SDS011;8016;49.928;9.372;2024-03-02T03:05:28;68.30;;;26.13;;
15831;SDS011;8016;49.928;9.372;2024-03-02T03:07:54;99.90;;;27.73;;
15831;SDS011;8016;49.928;9.372;2024-03-02T03:10:20;66.23;;;27.47;;
15831;SDS011;8016;49.928;9.372;2024-03-02T03:12:48;70.90;;;27.03;;
15831;SDS011;8016;49.928;9.372;2024-03-02T03:15:14;53.73;;;26.10;;
15831;SDS011;8016;49.928;9.372;2024-03-02T03:17:41;53.40;;;26.13;;
15831;SDS011;8016;49.928;9.372;2024-03-02T03:20:07;58.87;;;25.10;;
15831;SDS011;8016;49.928;9.372;2024-03-02T03:22:37;64.33;;;24.97;;
15831;SDS011;8016;49.928;9.372;2024-03-02T03:25:04;62.43;;;24.77;;
15831;SDS011;8016;49.928;9.372;2024-03-02T03:27:30;63.30;;;25.80;;
15831;SDS011;8016;49.928;9.372;2024-03-02T03:29:57;57.23;;;23.73;;
15831;SDS011;8016;49.928;9.372;2024-03-02T03:32:23;59.60;;;24.13;;
15831;SDS011;8016;49.928;9.372;2024-03-02T03:34:49;65.97;;;25.27;;
15831;SDS011;8016;49.928;9.372;2024-03-02T03:37:16;62.53;;;24.63;;
15831;SDS011;8016;49.928;9.372;2024-03-02T03:39:42;108.17;;;28.47;;
15831;SDS011;8016;49.928;9.372;2024-03-02T03:42:08;63.10;;;24.17;;
15831;SDS011;8016;49.928;9.372;2024-03-02T03:44:33;54.57;;;24.57;;
15831;SDS011;8016;49.928;9.372;2024-03-02T03:46:59;86.77;;;26.50;;
15831;SDS011;8016;49.928;9.372;2024-03-02T03:49:28;74.67;;;26.93;;
15831;SDS011;8016;49.928;9.372;2024-03-02T03:51:54;69.93;;;24.83;;
15831;SDS011;8016;49.928;9.372;2024-03-02T03:54:20;79.70;;;25.77;;
15831;SDS011;8016;49.928;9.372;2024-03-02T03:56:46;56.20;;;28.20;;
15831;SDS011;8016;49.928;9.372;2024-03-02T03:59:12;44.90;;;25.47;;
15831;SDS011;8016;49.928;9.372;2024-03-02T04:01:38;57.57;;;26.07;;
15831;SDS011;8016;49.928;9.372;2024-03-02T04:04:04;50.70;;;25.53;;
15831;SDS011;8016;49.928;9.372;2024-03-02T04:06:30;61.70;;;24.43;;
15831;SDS011;8016;49.928;9.372;2024-03-02T04:08:56;48.87;;;24.10;;
15831;SDS011;8016;49.928;9.372;2024-03-02T04:11:22;47.03;;;22.77;;
15831;SDS011;8016;49.928;9.372;2024-03-02T04:13:48;57.00;;;24.20;;
15831;SDS011;8016;49.928;9.372;2024-03-02T04:16:14;49.07;;;23.57;;
15831;SDS011;8016;49.928;9.372;2024-03-02T04:18:40;43.80;;;23.83;;
15831;SDS011;8016;49.928;9.372;2024-03-02T04:21:06;71.73;;;39.43;;
15831;SDS011;8016;49.928;9.372;2024-03-02T04:23:32;37.80;;;22.40;;
15831;SDS011;8016;49.928;9.372;2024-03-02T04:25:58;42.83;;;22.30;;
15831;SDS011;8016;49.928;9.372;2024-03-02T04:28:24;48.17;;;21.63;;
15831;SDS011;8016;49.928;9.372;2024-03-02T04:30:50;45.90;;;23.33;;
15831;SDS011;8016;49.928;9.372;2024-03-02T04:33:16;42.30;;;23.47;;
15831;SDS011;8016;49.928;9.372;2024-03-02T04:35:42;40.77;;;22.43;;
15831;SDS011;8016;49.928;9.372;2024-03-02T04:38:08;43.30;;;22.80;;
15831;SDS011;8016;49.928;9.372;2024-03-02T04:40:34;46.60;;;23.83;;
15831;SDS011;8016;49.928;9.372;2024-03-02T04:43:00;44.73;;;25.07;;
15831;SDS011;8016;49.928;9.372;2024-03-02T04:45:26;55.33;;;26.33;;
15831;SDS011;8016;49.928;9.372;2024-03-02T04:47:52;65.07;;;29.83;;
15831;SDS011;8016;49.928;9.372;2024-03-02T04:50:18;45.40;;;25.87;;
15831;SDS011;8016;49.928;9.372;2024-03-02T04:52:44;64.87;;;26.83;;
15831;SDS011;8016;49.928;9.372;2024-03-02T04:55:10;50.90;;;25.47;;
15831;SDS011;8016;49.928;9.372;2024-03-02T04:57:42;52.20;;;25.47;;
15831;SDS011;8016;49.928;9.372;2024-03-02T05:00:08;68.47;;;25.57;;
15831;SDS011;8016;49.928;9.372;2024-03-02T05:02:35;45.90;;;25.80;;
15831;SDS011;8016;49.928;9.372;2024-03-02T05:05:00;69.23;;;25.53;;
15831;SDS011;8016;49.928;9.372;2024-03-02T05:07:27;52.57;;;26.27;;
15831;SDS011;8016;49.928;9.372;2024-03-02T05:09:53;52.30;;;25.40;;
15831;SDS011;8016;49.928;9.372;2024-03-02T05:12:19;55.23;;;24.90;;
15831;SDS011;8016;49.928;9.372;2024-03-02T05:15:00;60.60;;;24.17;;
15831;SDS011;8016;49.928;9.372;2024-03-02T05:17:26;62.10;;;24.13;;
15831;SDS011;8016;49.928;9.372;2024-03-02T05:19:52;56.87;;;23.83;;
15831;SDS011;8016;49.928;9.372;2024-03-02T05:22:18;65.13;;;26.10;;
15831;SDS011;8016;49.928;9.372;2024-03-02T05:24:44;59.10;;;24.87;;
15831;SDS011;8016;49.928;9.372;2024-03-02T05:27:10;49.40;;;22.77;;
15831;SDS011;8016;49.928;9.372;2024-03-02T05:29:36;45.90;;;22.87;;
15831;SDS011;8016;49.928;9.372;2024-03-02T05:32:02;47.73;;;22.97;;
15831;SDS011;8016;49.928;9.372;2024-03-02T05:34:28;51.60;;;24.60;;
15831;SDS011;8016;49.928;9.372;2024-03-02T05:36:55;105.83;;;27.53;;
15831;SDS011;8016;49.928;9.372;2024-03-02T05:39:22;48.60;;;22.43;;
15831;SDS011;8016;49.928;9.372;2024-03-02T05:41:48;101.27;;;28.67;;
15831;SDS011;8016;49.928;9.372;2024-03-02T05:44:14;45.47;;;22.17;;
15831;SDS011;8016;49.928;9.372;2024-03-02T05:46:40;46.80;;;21.53;;
15831;SDS011;8016;49.928;9.372;2024-03-02T05:49:07;35.43;;;21.27;;
15831;SDS011;8016;49.928;9.372;2024-03-02T05:51:34;46.23;;;21.57;;
15831;SDS011;8016;49.928;9.372;2024-03-02T05:54:00;40.53;;;23.67;;
15831;SDS011;8016;49.928;9.372;2024-03-02T05:56:26;57.30;;;24.63;;
15831;SDS011;8016;49.928;9.372;2024-03-02T05:58:52;50.80;;;24.23;;
15831;SDS011;8016;49.928;9.372;2024-03-02T06:01:46;60.03;;;24.50;;
15831;SDS011;8016;49.928;9.372;2024-03-02T06:04:12;54.83;;;26.27;;
15831;SDS011;8016;49.928;9.372;2024-03-02T06:06:38;59.63;;;26.93;;
15831;SDS011;8016;49.928;9.372;2024-03-02T06:09:04;48.73;;;25.50;;
15831;SDS011;8016;49.928;9.372;2024-03-02T06:11:33;65.27;;;24.83;;
15831;SDS011;8016;49.928;9.372;2024-03-02T06:13:59;64.13;;;31.07;;
15831;SDS011;8016;49.928;9.372;2024-03-02T06:16:25;60.03;;;28.23;;
15831;SDS011;8016;49.928;9.372;2024-03-02T06:18:51;43.83;;;25.23;;
15831;SDS011;8016;49.928;9.372;2024-03-02T06:21:18;46.97;;;24.50;;
15831;SDS011;8016;49.928;9.372;2024-03-02T06:23:44;74.40;;;28.53;;
15831;SDS011;8016;49.928;9.372;2024-03-02T06:26:11;62.37;;;29.53;;
15831;SDS011;8016;49.928;9.372;2024-03-02T06:28:37;56.17;;;27.37;;
15831;SDS011;8016;49.928;9.372;2024-03-02T06:31:03;56.43;;;25.07;;
15831;SDS011;8016;49.928;9.372;2024-03-02T06:33:29;53.37;;;22.93;;
15831;SDS011;8016;49.928;9.372;2024-03-02T06:35:55;73.77;;;24.13;;
15831;SDS011;8016;49.928;9.372;2024-03-02T06:38:21;54.57;;;26.03;;
15831;SDS011;8016;49.928;9.372;2024-03-02T06:40:47;56.13;;;26.27;;
15831;SDS011;8016;49.928;9.372;2024-03-02T06:43:13;47.33;;;23.83;;
15831;SDS011;8016;49.928;9.372;2024-03-02T06:45:39;48.93;;;24.33;;
15831;SDS011;8016;49.928;9.372;2024-03-02T06:48:05;51.43;;;23.50;;
15831;SDS011;8016;49.928;9.372;2024-03-02T06:50:31;58.07;;;23.87;;
15831;SDS011;8016;49.928;9.372;2024-03-02T06:52:57;55.40;;;25.80;;
15831;SDS011;8016;49.928;9.372;2024-03-02T06:55:23;59.73;;;23.70;;
15831;SDS011;8016;49.928;9.372;2024-03-02T06:57:49;84.87;;;25.50;;
15831;SDS011;8016;49.928;9.372;2024-03-02T07:00:16;66.77;;;28.03;;
15831;SDS011;8016;49.928;9.372;2024-03-02T07:02:43;56.97;;;26.73;;
15831;SDS011;8016;49.928;9.372;2024-03-02T07:05:09;60.90;;;28.10;;
15831;SDS011;8016;49.928;9.372;2024-03-02T07:07:35;67.53;;;26.47;;
15831;SDS011;8016;49.928;9.372;2024-03-02T07:10:02;50.07;;;24.77;;
15831;SDS011;8016;49.928;9.372;2024-03-02T07:12:28;64.43;;;26.83;;
15831;SDS011;8016;49.928;9.372;2024-03-02T07:14:54;74.03;;;25.73;;
15831;SDS011;8016;49.928;9.372;2024-03-02T07:17:29;57.13;;;30.10;;
15831;SDS011;8016;49.928;9.372;2024-03-02T07:19:55;63.87;;;25.93;;
15831;SDS011;8016;49.928;9.372;2024-03-02T07:22:21;58.00;;;25.27;;
15831;SDS011;8016;49.928;9.372;2024-03-02T07:24:48;44.23;;;23.23;;
15831;SDS011;8016;49.928;9.372;2024-03-02T07:27:14;59.67;;;23.93;;
15831;SDS011;8016;49.928;9.372;2024-03-02T07:29:40;51.20;;;23.33;;
15831;SDS011;8016;49.928;9.372;2024-03-02T07:32:07;45.90;;;21.83;;
15831;SDS011;8016;49.928;9.372;2024-03-02T07:34:33;71.93;;;21.77;;
15831;SDS011;8016;49.928;9.372;2024-03-02T07:36:59;55.60;;;23.43;;
15831;SDS011;8016;49.928;9.372;2024-03-02T07:39:25;48.03;;;24.20;;
15831;SDS011;8016;49.928;9.372;2024-03-02T07:41:51;45.47;;;22.40;;
15831;SDS011;8016;49.928;9.372;2024-03-02T07:44:17;56.67;;;23.43;;
15831;SDS011;8016;49.928;9.372;2024-03-02T07:46:44;47.07;;;23.27;;
15831;SDS011;8016;49.928;9.372;2024-03-02T07:49:11;75.43;;;26.60;;
15831;SDS011;8016;49.928;9.372;2024-03-02T07:51:39;73.40;;;31.70;;
15831;SDS011;8016;49.928;9.372;2024-03-02T07:54:05;58.13;;;25.63;;
15831;SDS011;8016;49.928;9.372;2024-03-02T07:56:31;52.43;;;25.77;;
15831;SDS011;8016;49.928;9.372;2024-03-02T07:58:57;49.40;;;26.60;;
15831;SDS011;8016;49.928;9.372;2024-03-02T08:01:27;52.93;;;25.47;;
15831;SDS011;8016;49.928;9.372;2024-03-02T08:03:54;53.03;;;23.40;;
15831;SDS011;8016;49.928;9.372;2024-03-02T08:06:23;48.27;;;24.70;;
15831;SDS011;8016;49.928;9.372;2024-03-02T08:08:51;41.70;;;25.97;;
15831;SDS011;8016;49.928;9.372;2024-03-02T08:11:17;49.60;;;26.70;;
15831;SDS011;8016;49.928;9.372;2024-03-02T08:13:43;45.53;;;26.93;;
15831;SDS011;8016;49.928;9.372;2024-03-02T08:16:09;49.17;;;24.27;;
15831;SDS011;8016;49.928;9.372;2024-03-02T08:18:35;38.07;;;20.03;;
15831;SDS011;8016;49.928;9.372;2024-03-02T08:21:01;30.93;;;18.13;;
15831;SDS011;8016;49.928;9.372;2024-03-02T08:23:27;33.73;;;16.57;;
15831;SDS011;8016;49.928;9.372;2024-03-02T08:25:53;24.93;;;15.60;;
15831;SDS011;8016;49.928;9.372;2024-03-02T08:28:19;30.27;;;15.73;;
15831;SDS011;8016;49.928;9.372;2024-03-02T08:30:45;35.77;;;15.13;;
15831;SDS011;8016;49.928;9.372;2024-03-02T08:33:11;33.20;;;15.97;;
15831;SDS011;8016;49.928;9.372;2024-03-02T08:35:37;21.37;;;15.67;;
15831;SDS011;8016;49.928;9.372;2024-03-02T08:38:03;25.87;;;14.70;;
15831;SDS011;8016;49.928;9.372;2024-03-02T08:40:29;22.90;;;15.27;;
15831;SDS011;8016;49.928;9.372;2024-03-02T08:42:55;30.80;;;21.30;;
15831;SDS011;8016;49.928;9.372;2024-03-02T08:45:21;16.47;;;14.10;;
15831;SDS011;8016;49.928;9.372;2024-03-02T08:47:48;15.87;;;12.77;;
15831;SDS011;8016;49.928;9.372;2024-03-02T08:50:14;16.13;;;13.50;;
15831;SDS011;8016;49.928;9.372;2024-03-02T08:52:40;14.67;;;12.97;;
15831;SDS011;8016;49.928;9.372;2024-03-02T08:55:06;15.53;;;13.43;;
15831;SDS011;8016;49.928;9.372;2024-03-02T08:57:32;13.87;;;12.27;;
15831;SDS011;8016;49.928;9.372;2024-03-02T08:59:58;64.03;;;21.23;;
15831;SDS011;8016;49.928;9.372;2024-03-02T09:02:24;18.20;;;14.87;;
15831;SDS011;8016;49.928;9.372;2024-03-02T09:04:50;15.90;;;14.17;;
15831;SDS011;8016;49.928;9.372;2024-03-02T09:07:16;19.60;;;14.40;;
15831;SDS011;8016;49.928;9.372;2024-03-02T09:09:42;15.90;;;13.83;;
15831;SDS011;8016;49.928;9.372;2024-03-02T09:12:08;16.00;;;13.93;;
15831;SDS011;8016;49.928;9.372;2024-03-02T09:14:35;17.50;;;15.13;;
15831;SDS011;8016;49.928;9.372;2024-03-02T09:17:02;14.90;;;13.07;;
15831;SDS011;8016;49.928;9.372;2024-03-02T09:19:28;14.90;;;12.87;;
15831;SDS011;8016;49.928;9.372;2024-03-02T09:21:54;17.50;;;13.67;;
15831;SDS011;8016;49.928;9.372;2024-03-02T09:24:23;13.53;;;12.13;;
15831;SDS011;8016;49.928;9.372;2024-03-02T09:26:49;13.37;;;11.97;;
15831;SDS011;8016;49.928;9.372;2024-03-02T09:29:15;12.73;;;11.43;;
15831;SDS011;8016;49.928;9.372;2024-03-02T09:31:42;11.83;;;10.63;;
15831;SDS011;8016;49.928;9.372;2024-03-02T09:34:09;13.67;;;11.30;;
15831;SDS011;8016;49.928;9.372;2024-03-02T09:36:35;15.57;;;13.50;;
15831;SDS011;8016;49.928;9.372;2024-03-02T09:39:01;12.07;;;10.83;;
15831;SDS011;8016;49.928;9.372;2024-03-02T09:41:28;13.27;;;11.47;;
15831;SDS011;8016;49.928;9.372;2024-03-02T09:43:55;13.90;;;11.90;;
15831;SDS011;8016;49.928;9.372;2024-03-02T09:46:21;12.70;;;11.40;;
15831;SDS011;8016;49.928;9.372;2024-03-02T09:48:47;12.37;;;10.27;;
15831;SDS011;8016;49.928;9.372;2024-03-02T09:51:13;12.50;;;11.17;;
15831;SDS011;8016;49.928;9.372;2024-03-02T09:53:39;12.17;;;10.87;;
15831;SDS011;8016;49.928;9.372;2024-03-02T09:56:05;12.13;;;10.77;;
15831;SDS011;8016;49.928;9.372;2024-03-02T09:58:32;11.50;;;9.97;;
15831;SDS011;8016;49.928;9.372;2024-03-02T10:00:58;11.67;;;10.00;;
15831;SDS011;8016;49.928;9.372;2024-03-02T10:03:24;10.33;;;8.33;;
15831;SDS011;8016;49.928;9.372;2024-03-02T10:05:50;10.67;;;8.63;;
15831;SDS011;8016;49.928;9.372;2024-03-02T10:08:16;11.37;;;9.07;;
15831;SDS011;8016;49.928;9.372;2024-03-02T10:10:42;10.13;;;8.97;;
15831;SDS011;8016;49.928;9.372;2024-03-02T10:13:09;11.40;;;9.53;;
15831;SDS011;8016;49.928;9.372;2024-03-02T10:15:36;19.80;;;14.80;;
15831;SDS011;8016;49.928;9.372;2024-03-02T10:18:03;10.40;;;8.13;;
15831;SDS011;8016;49.928;9.372;2024-03-02T10:20:29;9.13;;;7.03;;
15831;SDS011;8016;49.928;9.372;2024-03-02T10:23:09;7.90;;;7.10;;
15831;SDS011;8016;49.928;9.372;2024-03-02T10:25:35;10.10;;;6.67;;
15831;SDS011;8016;49.928;9.372;2024-03-02T10:28:01;7.97;;;6.87;;
15831;SDS011;8016;49.928;9.372;2024-03-02T10:30:30;7.60;;;6.90;;
15831;SDS011;8016;49.928;9.372;2024-03-02T10:32:56;8.70;;;7.73;;
15831;SDS011;8016;49.928;9.372;2024-03-02T10:35:22;7.93;;;6.47;;
15831;SDS011;8016;49.928;9.372;2024-03-02T10:37:49;9.73;;;7.30;;
15831;SDS011;8016;49.928;9.372;2024-03-02T10:40:15;6.50;;;5.80;;
15831;SDS011;8016;49.928;9.372;2024-03-02T10:42:42;6.93;;;6.10;;
15831;SDS011;8016;49.928;9.372;2024-03-02T10:45:12;7.90;;;5.20;;
15831;SDS011;8016;49.928;9.372;2024-03-02T10:47:38;5.93;;;5.33;;
15831;SDS011;8016;49.928;9.372;2024-03-02T10:50:04;6.30;;;5.67;;
15831;SDS011;8016;49.928;9.372;2024-03-02T10:52:33;6.63;;;5.93;;
15831;SDS011;8016;49.928;9.372;2024-03-02T10:54:59;5.17;;;4.67;;
15831;SDS011;8016;49.928;9.372;2024-03-02T10:57:25;5.93;;;4.67;;
15831;SDS011;8016;49.928;9.372;2024-03-02T10:59:52;6.50;;;4.63;;
15831;SDS011;8016;49.928;9.372;2024-03-02T11:02:19;5.57;;;4.90;;
15831;SDS011;8016;49.928;9.372;2024-03-02T11:04:47;6.00;;;4.93;;
15831;SDS011;8016;49.928;9.372;2024-03-02T11:07:15;5.80;;;4.90;;
15831;SDS011;8016;49.928;9.372;2024-03-02T11:09:48;7.67;;;5.00;;
15831;SDS011;8016;49.928;9.372;2024-03-02T11:12:31;5.17;;;4.63;;
15831;SDS011;8016;49.928;9.372;2024-03-02T11:14:58;6.87;;;4.80;;
15831;SDS011;8016;49.928;9.372;2024-03-02T11:17:25;7.53;;;3.90;;
15831;SDS011;8016;49.928;9.372;2024-03-02T11:19:51;5.43;;;4.90;;
15831;SDS011;8016;49.928;9.372;2024-03-02T11:22:17;4.93;;;4.40;;
15831;SDS011;8016;49.928;9.372;2024-03-02T11:24:48;5.80;;;4.50;;
15831;SDS011;8016;49.928;9.372;2024-03-02T11:27:14;6.00;;;4.53;;
15831;SDS011;8016;49.928;9.372;2024-03-02T11:32:14;7.80;;;5.33;;
15831;SDS011;8016;49.928;9.372;2024-03-02T11:34:41;4.70;;;4.20;;
15831;SDS011;8016;49.928;9.372;2024-03-02T11:37:11;6.47;;;5.10;;
15831;SDS011;8016;49.928;9.372;2024-03-02T11:39:37;4.50;;;4.00;;
15831;SDS011;8016;49.928;9.372;2024-03-02T11:42:05;4.83;;;4.20;;
15831;SDS011;8016;49.928;9.372;2024-03-02T11:44:33;7.30;;;3.70;;
15831;SDS011;8016;49.928;9.372;2024-03-02T11:47:00;4.50;;;3.53;;
15831;SDS011;8016;49.928;9.372;2024-03-02T11:49:46;6.03;;;3.37;;
15831;SDS011;8016;49.928;9.372;2024-03-02T11:52:14;3.30;;;2.97;;
15831;SDS011;8016;49.928;9.372;2024-03-02T11:54:43;3.87;;;3.50;;
15831;SDS011;8016;49.928;9.372;2024-03-02T11:57:13;4.00;;;2.97;;
15831;SDS011;8016;49.928;9.372;2024-03-02T11:59:42;3.83;;;3.33;;
15831;SDS011;8016;49.928;9.372;2024-03-02T12:02:15;10.10;;;6.60;;
15831;SDS011;8016;49.928;9.372;2024-03-02T12:04:42;4.87;;;3.80;;
15831;SDS011;8016;49.928;9.372;2024-03-02T12:07:09;6.13;;;3.90;;
15831;SDS011;8016;49.928;9.372;2024-03-02T12:09:36;4.67;;;2.80;;
15831;SDS011;8016;49.928;9.372;2024-03-02T12:12:02;3.10;;;2.80;;
15831;SDS011;8016;49.928;9.372;2024-03-02T12:14:32;3.60;;;2.80;;
15831;SDS011;8016;49.928;9.372;2024-03-02T12:16:59;2.87;;;2.27;;
15831;SDS011;8016;49.928;9.372;2024-03-02T12:19:25;2.47;;;1.90;;
15831;SDS011;8016;49.928;9.372;2024-03-02T12:21:52;2.43;;;2.23;;
15831;SDS011;8016;49.928;9.372;2024-03-02T12:24:19;1.87;;;1.77;;
15831;SDS011;8016;49.928;9.372;2024-03-02T12:26:46;1.80;;;1.70;;
15831;SDS011;8016;49.928;9.372;2024-03-02T12:29:13;2.40;;;2.13;;
15831;SDS011;8016;49.928;9.372;2024-03-02T12:31:40;2.30;;;2.10;;
15831;SDS011;8016;49.928;9.372;2024-03-02T12:34:06;3.90;;;2.03;;
15831;SDS011;8016;49.928;9.372;2024-03-02T12:36:37;3.27;;;2.60;;
15831;SDS011;8016;49.928;9.372;2024-03-02T12:39:03;3.50;;;3.20;;
15831;SDS011;8016;49.928;9.372;2024-03-02T12:41:29;3.87;;;3.13;;
15831;SDS011;8016;49.928;9.372;2024-03-02T12:43:55;3.53;;;3.00;;
15831;SDS011;8016;49.928;9.372;2024-03-02T12:46:21;4.80;;;3.50;;
15831;SDS011;8016;49.928;9.372;2024-03-02T12:48:47;3.80;;;3.50;;
15831;SDS011;8016;49.928;9.372;2024-03-02T12:51:13;3.27;;;2.97;;
15831;SDS011;8016;49.928;9.372;2024-03-02T12:53:40;3.17;;;2.80;;
15831;SDS011;8016;49.928;9.372;2024-03-02T12:56:07;4.27;;;3.23;;
15831;SDS011;8016;49.928;9.372;2024-03-02T12:58:38;3.53;;;3.20;;
15831;SDS011;8016;49.928;9.372;2024-03-02T13:01:07;5.10;;;3.10;;
15831;SDS011;8016;49.928;9.372;2024-03-02T13:03:37;3.63;;;3.00;;
15831;SDS011;8016;49.928;9.372;2024-03-02T13:06:03;3.30;;;3.00;;
15831;SDS011;8016;49.928;9.372;2024-03-02T13:08:30;3.30;;;3.00;;
15831;SDS011;8016;49.928;9.372;2024-03-02T13:10:56;3.10;;;2.80;;
15831;SDS011;8016;49.928;9.372;2024-03-02T13:13:22;3.53;;;3.10;;
15831;SDS011;8016;49.928;9.372;2024-03-02T13:15:48;4.97;;;4.33;;
15831;SDS011;8016;49.928;9.372;2024-03-02T13:18:17;4.10;;;3.67;;
15831;SDS011;8016;49.928;9.372;2024-03-02T13:20:44;5.43;;;4.80;;
15831;SDS011;8016;49.928;9.372;2024-03-02T13:23:13;7.23;;;5.40;;
15831;SDS011;8016;49.928;9.372;2024-03-02T13:25:39;8.50;;;5.20;;
15831;SDS011;8016;49.928;9.372;2024-03-02T13:28:05;5.17;;;4.67;;
15831;SDS011;8016;49.928;9.372;2024-03-02T13:30:32;4.80;;;3.80;;
15831;SDS011;8016;49.928;9.372;2024-03-02T13:32:58;5.23;;;4.20;;
15831;SDS011;8016;49.928;9.372;2024-03-02T13:35:24;4.87;;;4.23;;
15831;SDS011;8016;49.928;9.372;2024-03-02T13:37:50;5.43;;;4.90;;
15831;SDS011;8016;49.928;9.372;2024-03-02T13:40:16;5.13;;;4.63;;
15831;SDS011;8016;49.928;9.372;2024-03-02T13:42:45;5.13;;;4.30;;
15831;SDS011;8016;49.928;9.372;2024-03-02T13:45:12;5.30;;;4.63;;
15831;SDS011;8016;49.928;9.372;2024-03-02T13:47:38;5.87;;;4.87;;
15831;SDS011;8016;49.928;9.372;2024-03-02T13:50:07;5.00;;;4.53;;
15831;SDS011;8016;49.928;9.372;2024-03-02T13:52:33;6.33;;;5.13;;
15831;SDS011;8016;49.928;9.372;2024-03-02T13:54:59;5.73;;;4.87;;
15831;SDS011;8016;49.928;9.372;2024-03-02T13:57:28;5.67;;;4.77;;
15831;SDS011;8016;49.928;9.372;2024-03-02T13:59:55;7.00;;;6.30;;
15831;SDS011;8016;49.928;9.372;2024-03-02T14:02:24;6.17;;;5.57;;
15831;SDS011;8016;49.928;9.372;2024-03-02T14:04:50;6.17;;;5.37;;
15831;SDS011;8016;49.928;9.372;2024-03-02T14:07:16;6.57;;;5.97;;
15831;SDS011;8016;49.928;9.372;2024-03-02T14:09:43;6.40;;;5.70;;
15831;SDS011;8016;49.928;9.372;2024-03-02T14:12:09;7.00;;;6.20;;
15831;SDS011;8016;49.928;9.372;2024-03-02T14:14:35;6.33;;;5.70;;
15831;SDS011;8016;49.928;9.372;2024-03-02T14:17:01;6.63;;;5.63;;
15831;SDS011;8016;49.928;9.372;2024-03-02T14:19:31;7.03;;;5.30;;
15831;SDS011;8016;49.928;9.372;2024-03-02T14:21:58;5.40;;;4.90;;
15831;SDS011;8016;49.928;9.372;2024-03-02T14:24:24;5.47;;;4.97;;
15831;SDS011;8016;49.928;9.372;2024-03-02T14:26:53;5.00;;;4.60;;
15831;SDS011;8016;49.928;9.372;2024-03-02T14:29:19;5.07;;;4.57;;
15831;SDS011;8016;49.928;9.372;2024-03-02T14:31:45;6.00;;;4.90;;
15831;SDS011;8016;49.928;9.372;2024-03-02T14:34:13;4.30;;;3.67;;
15831;SDS011;8016;49.928;9.372;2024-03-02T14:36:39;4.13;;;3.37;;
15831;SDS011;8016;49.928;9.372;2024-03-02T14:39:06;4.00;;;3.60;;
15831;SDS011;8016;49.928;9.372;2024-03-02T14:41:35;4.23;;;3.63;;
15831;SDS011;8016;49.928;9.372;2024-03-02T14:44:01;4.73;;;3.47;;
15831;SDS011;8016;49.928;9.372;2024-03-02T14:46:27;4.80;;;3.40;;